createdAt,value
2023-02-19T00:00:23.157Z,85.84
2023-02-19T00:01:23.202Z,86.49
2023-02-19T00:02:23.198Z,86.90
2023-02-19T00:03:23.212Z,86.04
2023-02-19T00:04:23.177Z,86.35
2023-02-19T00:05:23.237Z,86.35
2023-02-19T00:06:23.292Z,85.53
2023-02-19T00:07:23.328Z,85.28
2023-02-19T00:08:23.378Z,85.19
2023-02-19T00:09:23.427Z,84.88
2023-02-19T00:10:23.389Z,85.28
2023-02-19T00:11:23.438Z,84.88
2023-02-19T00:12:23.478Z,84.78
2023-02-19T00:13:23.553Z,85.43
2023-02-19T00:14:23.696Z,85.74
2023-02-19T00:15:24.388Z,87.00
2023-02-19T00:16:23.723Z,87.41
2023-02-19T00:17:23.700Z,88.06
2023-02-19T00:18:23.738Z,88.61
2023-02-19T00:19:23.870Z,88.88
2023-02-19T00:20:23.855Z,88.22
2023-02-19T00:21:23.916Z,86.86
2023-02-19T00:22:23.940Z,87.26
2023-02-19T00:23:23.956Z,87.16
2023-02-19T00:24:23.960Z,87.10
2023-02-19T00:25:24.011Z,87.71
2023-02-19T00:26:23.982Z,86.96
2023-02-19T00:27:24.090Z,87.71
2023-02-19T00:28:24.033Z,88.22
2023-02-19T00:29:24.134Z,87.67
2023-02-19T00:30:24.928Z,86.71
2023-02-19T00:31:24.367Z,86.04
2023-02-19T00:32:24.271Z,87.41
2023-02-19T00:33:24.231Z,87.85
2023-02-19T00:34:24.276Z,88.63
2023-02-19T00:35:24.336Z,87.92
2023-02-19T00:36:24.645Z,88.02
2023-02-19T00:37:24.357Z,87.71
2023-02-19T00:38:24.377Z,87.57
2023-02-19T00:39:24.375Z,87.37
2023-02-19T00:40:24.372Z,87.55
2023-02-19T00:41:24.517Z,88.47
2023-02-19T00:42:24.518Z,89.08
2023-02-19T00:43:24.512Z,89.08
2023-02-19T00:44:24.493Z,88.02
2023-02-19T00:45:24.570Z,87.96
2023-02-19T00:46:24.693Z,88.82
2023-02-19T00:47:24.663Z,89.02
2023-02-19T00:48:24.635Z,88.98
2023-02-19T00:49:24.647Z,89.39
2023-02-19T00:50:24.710Z,89.28
2023-02-19T00:51:24.748Z,88.47
2023-02-19T00:52:24.923Z,88.43
2023-02-19T00:53:24.878Z,87.96
2023-02-19T00:54:24.889Z,88.78
2023-02-19T00:55:24.870Z,89.08
2023-02-19T00:56:24.949Z,89.18
2023-02-19T00:57:24.931Z,89.23
2023-02-19T00:58:24.944Z,89.18
2023-02-19T00:59:25.005Z,88.63
2023-02-19T01:00:25.034Z,87.55
2023-02-19T01:01:25.086Z,88.88
2023-02-19T01:02:25.114Z,88.53
2023-02-19T01:03:25.165Z,87.71
2023-02-19T01:04:25.300Z,88.43
2023-02-19T01:05:25.283Z,87.96
2023-02-19T01:06:25.288Z,88.88
2023-02-19T01:07:25.294Z,88.88
2023-02-19T01:08:25.309Z,88.88
2023-02-19T01:09:25.344Z,89.28
2023-02-19T01:10:25.385Z,89.69
2023-02-19T01:11:25.407Z,89.39
2023-02-19T01:12:25.394Z,89.14
2023-02-19T01:13:25.451Z,88.93
2023-02-19T01:14:25.475Z,87.77
2023-02-19T01:15:25.464Z,88.67
2023-02-19T01:16:25.528Z,89.08
2023-02-19T01:17:25.545Z,89.79
2023-02-19T01:18:25.508Z,89.79
2023-02-19T01:19:25.520Z,89.25
2023-02-19T01:20:25.516Z,88.43
2023-02-19T01:21:25.561Z,88.53
2023-02-19T01:22:25.568Z,89.08
2023-02-19T01:23:25.615Z,90.10
2023-02-19T01:24:25.660Z,89.69
2023-02-19T01:25:25.695Z,89.25
2023-02-19T01:26:25.727Z,88.93
2023-02-19T01:27:25.765Z,88.53
2023-02-19T01:28:25.805Z,88.53
2023-02-19T01:29:25.837Z,88.28
2023-02-19T01:30:25.913Z,88.84
2023-02-19T01:31:26.017Z,89.04
2023-02-19T01:32:25.967Z,87.88
2023-02-19T01:33:25.974Z,87.92
2023-02-19T01:34:26.068Z,88.53
2023-02-19T01:35:26.073Z,88.78
2023-02-19T01:36:26.094Z,88.93
2023-02-19T01:37:26.111Z,89.28
2023-02-19T01:38:26.149Z,89.75
2023-02-19T01:39:26.239Z,88.93
2023-02-19T01:40:26.228Z,88.93
2023-02-19T01:41:26.310Z,89.28
2023-02-19T01:42:26.290Z,89.49
2023-02-19T01:43:26.302Z,89.96
2023-02-19T01:44:26.352Z,88.43
2023-02-19T01:45:26.452Z,89.04
2023-02-19T01:46:26.555Z,88.43
2023-02-19T01:47:26.493Z,89.39
2023-02-19T01:48:26.532Z,89.25
2023-02-19T01:49:26.581Z,87.63
2023-02-19T01:50:26.642Z,86.57
2023-02-19T01:51:26.663Z,87.20
2023-02-19T01:52:26.688Z,88.32
2023-02-19T01:53:26.733Z,88.63
2023-02-19T01:54:26.774Z,88.22
2023-02-19T01:55:26.826Z,87.67
2023-02-19T01:56:26.886Z,88.02
2023-02-19T01:57:26.897Z,87.71
2023-02-19T01:58:26.954Z,87.71
2023-02-19T01:59:26.987Z,88.17
2023-02-19T02:00:27.056Z,88.32
2023-02-19T02:01:27.020Z,89.18
2023-02-19T02:02:27.026Z,89.84
2023-02-19T02:03:27.119Z,90.10
2023-02-19T02:04:27.139Z,89.59
2023-02-19T02:05:27.128Z,89.25
2023-02-19T02:06:27.136Z,88.32
2023-02-19T02:07:27.170Z,89.28
2023-02-19T02:08:27.197Z,89.28
2023-02-19T02:09:27.222Z,89.59
2023-02-19T02:10:27.251Z,89.04
2023-02-19T02:11:27.270Z,88.98
2023-02-19T02:12:27.291Z,89.69
2023-02-19T02:13:27.299Z,89.28
2023-02-19T02:14:27.322Z,89.69
2023-02-19T02:15:27.353Z,89.84
2023-02-19T02:16:27.415Z,90.10
2023-02-19T02:17:27.371Z,90.00
2023-02-19T02:18:27.413Z,89.28
2023-02-19T02:19:27.474Z,89.18
2023-02-19T02:20:27.518Z,89.59
2023-02-19T02:21:27.535Z,89.79
2023-02-19T02:22:27.585Z,89.90
2023-02-19T02:23:27.605Z,88.84
2023-02-19T02:24:27.635Z,88.67
2023-02-19T02:25:27.636Z,88.93
2023-02-19T02:26:27.653Z,87.88
2023-02-19T02:27:27.637Z,87.61
2023-02-19T02:28:27.628Z,87.82
2023-02-19T02:29:27.652Z,88.93
2023-02-19T02:30:27.767Z,88.53
2023-02-19T02:31:27.773Z,88.02
2023-02-19T02:32:27.729Z,88.53
2023-02-19T02:33:27.787Z,88.02
2023-02-19T02:34:27.799Z,88.02
2023-02-19T02:35:27.790Z,88.43
2023-02-19T02:36:28.799Z,87.47
2023-02-19T02:37:27.841Z,87.61
2023-02-19T02:38:27.851Z,87.45
2023-02-19T02:39:27.909Z,87.96
2023-02-19T02:40:27.913Z,88.47
2023-02-19T02:41:27.926Z,87.82
2023-02-19T02:42:27.993Z,87.47
2023-02-19T02:43:28.050Z,86.10
2023-02-19T02:44:28.067Z,85.39
2023-02-19T02:45:28.105Z,85.90
2023-02-19T02:46:28.161Z,86.18
2023-02-19T02:47:28.212Z,86.69
2023-02-19T02:48:28.242Z,86.65
2023-02-19T02:49:28.273Z,86.65
2023-02-19T02:50:28.283Z,86.24
2023-02-19T02:51:28.362Z,85.90
2023-02-19T02:52:28.356Z,85.74
2023-02-19T02:53:28.393Z,86.49
2023-02-19T02:54:28.470Z,86.35
2023-02-19T02:55:28.533Z,85.28
2023-02-19T02:56:28.508Z,84.98
2023-02-19T02:57:28.564Z,84.84
2023-02-19T02:58:28.545Z,85.13
2023-02-19T02:59:28.605Z,86.24
2023-02-19T03:00:28.625Z,86.04
2023-02-19T03:01:28.769Z,85.39
2023-02-19T03:02:28.809Z,86.15
2023-02-19T03:03:28.814Z,86.24
2023-02-19T03:04:28.796Z,86.00
2023-02-19T03:05:28.866Z,86.24
2023-02-19T03:06:28.900Z,85.53
2023-02-19T03:07:28.944Z,86.69
2023-02-19T03:08:29.010Z,86.96
2023-02-19T03:09:29.016Z,86.35
2023-02-19T03:10:28.997Z,86.15
2023-02-19T03:11:29.059Z,86.15
2023-02-19T03:12:29.001Z,87.00
2023-02-19T03:13:29.019Z,86.24
2023-02-19T03:14:29.039Z,86.45
2023-02-19T03:15:29.050Z,86.10
2023-02-19T03:16:29.164Z,85.74
2023-02-19T03:17:29.164Z,86.15
2023-02-19T03:18:29.210Z,85.90
2023-02-19T03:19:29.211Z,85.69
2023-02-19T03:20:29.219Z,85.63
2023-02-19T03:21:29.248Z,86.80
2023-02-19T03:22:29.280Z,87.51
2023-02-19T03:23:29.281Z,86.65
2023-02-19T03:24:29.380Z,86.65
2023-02-19T03:25:29.396Z,86.24
2023-02-19T03:26:29.359Z,86.04
2023-02-19T03:27:29.399Z,86.94
2023-02-19T03:28:29.450Z,87.00
2023-02-19T03:29:29.474Z,86.69
2023-02-19T03:30:29.556Z,87.00
2023-02-19T03:31:29.856Z,87.20
2023-02-19T03:32:29.579Z,86.83
2023-02-19T03:33:29.641Z,87.65
2023-02-19T03:34:29.878Z,86.86
2023-02-19T03:35:29.685Z,86.29
2023-02-19T03:36:29.731Z,86.59
2023-02-19T03:37:29.734Z,86.45
2023-02-19T03:38:29.741Z,85.68
2023-02-19T03:39:29.744Z,86.49
2023-02-19T03:40:29.763Z,85.77
2023-02-19T03:41:29.793Z,86.08
2023-02-19T03:42:29.913Z,86.49
2023-02-19T03:43:29.853Z,85.63
2023-02-19T03:44:29.894Z,85.43
2023-02-19T03:45:29.903Z,86.18
2023-02-19T03:46:29.932Z,86.43
2023-02-19T03:47:29.994Z,86.49
2023-02-19T03:48:29.986Z,85.02
2023-02-19T03:49:30.024Z,85.13
2023-02-19T03:50:30.047Z,85.61
2023-02-19T03:51:30.104Z,85.98
2023-02-19T03:52:30.127Z,85.53
2023-02-19T03:53:30.125Z,84.72
2023-02-19T03:54:30.123Z,84.17
2023-02-19T03:55:30.157Z,84.20
2023-02-19T03:56:30.200Z,84.92
2023-02-19T03:57:30.195Z,84.88
2023-02-19T03:58:30.470Z,83.65
2023-02-19T03:59:30.245Z,84.00
2023-02-19T04:00:30.233Z,84.51
2023-02-19T04:01:30.279Z,84.41
2023-02-19T04:02:30.342Z,84.96
2023-02-19T04:03:30.371Z,85.57
2023-02-19T04:04:30.487Z,84.82
2023-02-19T04:05:30.402Z,84.51
2023-02-19T04:06:30.414Z,85.16
2023-02-19T04:07:30.445Z,85.37
2023-02-19T04:08:30.463Z,86.02
2023-02-19T04:09:30.546Z,85.57
2023-02-19T04:10:30.527Z,85.47
2023-02-19T04:11:30.525Z,84.96
2023-02-19T04:12:30.566Z,84.80
2023-02-19T04:13:30.585Z,85.00
2023-02-19T04:14:30.608Z,85.41
2023-02-19T04:15:30.607Z,85.88
2023-02-19T04:16:30.715Z,84.90
2023-02-19T04:17:30.698Z,85.27
2023-02-19T04:18:30.746Z,84.90
2023-02-19T04:19:30.790Z,84.90
2023-02-19T04:20:30.794Z,85.30
2023-02-19T04:21:30.840Z,85.30
2023-02-19T04:22:30.900Z,84.80
2023-02-19T04:23:30.954Z,84.96
2023-02-19T04:24:30.932Z,84.96
2023-02-19T04:25:30.964Z,84.80
2023-02-19T04:26:31.021Z,84.66
2023-02-19T04:27:31.084Z,84.25
2023-02-19T04:28:31.062Z,84.25
2023-02-19T04:29:31.069Z,83.80
2023-02-19T04:30:31.194Z,84.18
2023-02-19T04:31:31.335Z,84.55
2023-02-19T04:32:31.187Z,84.49
2023-02-19T04:33:31.228Z,84.25
2023-02-19T04:34:31.250Z,83.63
2023-02-19T04:35:31.295Z,83.43
2023-02-19T04:36:31.318Z,83.98
2023-02-19T04:37:31.387Z,84.28
2023-02-19T04:38:31.401Z,84.18
2023-02-19T04:39:31.429Z,84.39
2023-02-19T04:40:31.456Z,84.53
2023-02-19T04:41:31.468Z,84.80
2023-02-19T04:42:31.522Z,83.78
2023-02-19T04:43:31.556Z,83.98
2023-02-19T04:44:31.540Z,83.67
2023-02-19T04:45:31.539Z,83.73
2023-02-19T04:46:31.521Z,83.12
2023-02-19T04:47:31.572Z,82.71
2023-02-19T04:48:31.581Z,83.78
2023-02-19T04:49:31.619Z,83.67
2023-02-19T04:50:31.649Z,84.08
2023-02-19T04:51:31.670Z,83.23
2023-02-19T04:52:31.688Z,83.02
2023-02-19T04:53:31.724Z,82.41
2023-02-19T04:54:31.781Z,82.82
2023-02-19T04:55:31.822Z,83.53
2023-02-19T04:56:31.866Z,83.23
2023-02-19T04:57:31.928Z,82.82
2023-02-19T04:58:31.943Z,82.71
2023-02-19T04:59:31.939Z,83.02
2023-02-19T05:00:31.980Z,83.47
2023-02-19T05:01:32.022Z,83.57
2023-02-19T05:02:32.003Z,83.23
2023-02-19T05:03:32.053Z,83.26
2023-02-19T05:04:32.052Z,83.57
2023-02-19T05:05:32.070Z,83.47
2023-02-19T05:06:32.115Z,83.40
2023-02-19T05:07:32.168Z,83.81
2023-02-19T05:08:32.193Z,84.01
2023-02-19T05:09:32.204Z,83.53
2023-02-19T05:10:32.224Z,83.78
2023-02-19T05:11:32.284Z,83.37
2023-02-19T05:12:32.376Z,83.12
2023-02-19T05:13:32.401Z,82.41
2023-02-19T05:14:32.398Z,82.71
2023-02-19T05:15:32.537Z,82.82
2023-02-19T05:16:32.499Z,83.12
2023-02-19T05:17:32.498Z,83.37
2023-02-19T05:18:32.547Z,82.86
2023-02-19T05:19:32.703Z,83.51
2023-02-19T05:20:32.598Z,83.37
2023-02-19T05:21:32.655Z,83.16
2023-02-19T05:22:32.657Z,82.96
2023-02-19T05:23:32.709Z,83.26
2023-02-19T05:24:32.796Z,82.55
2023-02-19T05:25:32.807Z,83.00
2023-02-19T05:26:32.839Z,83.40
2023-02-19T05:27:32.838Z,82.35
2023-02-19T05:28:32.879Z,83.20
2023-02-19T05:29:32.859Z,82.41
2023-02-19T05:30:32.941Z,82.04
2023-02-19T05:31:33.056Z,82.96
2023-02-19T05:32:33.021Z,82.65
2023-02-19T05:33:33.031Z,82.21
2023-02-19T05:34:33.030Z,82.04
2023-02-19T05:35:33.020Z,82.35
2023-02-19T05:36:33.062Z,82.89
2023-02-19T05:37:33.086Z,82.45
2023-02-19T05:38:33.052Z,81.59
2023-02-19T05:39:33.101Z,81.09
2023-02-19T05:40:33.086Z,81.94
2023-02-19T05:41:33.083Z,82.04
2023-02-19T05:42:33.136Z,82.35
2023-02-19T05:43:33.206Z,82.69
2023-02-19T05:44:33.235Z,83.26
2023-02-19T05:45:33.295Z,82.45
2023-02-19T05:46:33.336Z,82.75
2023-02-19T05:47:33.284Z,83.06
2023-02-19T05:48:33.335Z,82.96
2023-02-19T05:49:33.380Z,83.30
2023-02-19T05:50:33.427Z,82.75
2023-02-19T05:51:33.437Z,82.75
2023-02-19T05:52:33.424Z,82.55
2023-02-19T05:53:33.523Z,82.69
2023-02-19T05:54:33.503Z,83.30
2023-02-19T05:55:33.578Z,84.01
2023-02-19T05:56:33.567Z,83.37
2023-02-19T05:57:33.618Z,82.41
2023-02-19T05:58:33.614Z,82.24
2023-02-19T05:59:33.625Z,82.69
2023-02-19T06:00:33.676Z,83.00
2023-02-19T06:01:33.728Z,83.18
2023-02-19T06:02:33.793Z,83.59
2023-02-19T06:03:33.871Z,83.62
2023-02-19T06:04:33.909Z,84.72
2023-02-19T06:05:33.915Z,84.72
2023-02-19T06:06:34.800Z,85.14
2023-02-19T06:07:33.949Z,85.17
2023-02-19T06:08:34.024Z,85.22
2023-02-19T06:09:34.082Z,85.97
2023-02-19T06:10:34.085Z,86.69
2023-02-19T06:11:34.083Z,87.04
2023-02-19T06:12:34.053Z,87.14
2023-02-19T06:13:34.102Z,87.45
2023-02-19T06:14:34.233Z,87.14
2023-02-19T06:15:34.200Z,87.38
2023-02-19T06:16:34.232Z,87.59
2023-02-19T06:17:34.270Z,88.00
2023-02-19T06:18:34.356Z,88.00
2023-02-19T06:19:34.365Z,87.24
2023-02-19T06:20:34.434Z,86.87
2023-02-19T06:21:34.436Z,87.38
2023-02-19T06:22:34.454Z,87.49
2023-02-19T06:23:34.482Z,87.53
2023-02-19T06:24:34.525Z,87.38
2023-02-19T06:25:34.545Z,87.63
2023-02-19T06:26:34.625Z,88.04
2023-02-19T06:27:34.644Z,87.84
2023-02-19T06:28:34.715Z,87.22
2023-02-19T06:29:34.764Z,87.67
2023-02-19T06:30:34.929Z,87.46
2023-02-19T06:31:34.981Z,87.67
2023-02-19T06:32:34.874Z,88.18
2023-02-19T06:33:34.901Z,88.08
2023-02-19T06:34:34.934Z,88.08
2023-02-19T06:35:34.971Z,87.73
2023-02-19T06:36:35.001Z,86.77
2023-02-19T06:37:35.055Z,86.66
2023-02-19T06:38:35.084Z,86.57
2023-02-19T06:39:35.123Z,86.66
2023-02-19T06:40:35.161Z,85.95
2023-02-19T06:41:35.182Z,86.87
2023-02-19T06:42:35.215Z,86.66
2023-02-19T06:43:35.203Z,85.74
2023-02-19T06:44:35.272Z,86.15
2023-02-19T06:45:35.309Z,86.91
2023-02-19T06:46:35.389Z,86.91
2023-02-19T06:47:35.414Z,86.57
2023-02-19T06:48:35.498Z,86.01
2023-02-19T06:49:35.495Z,85.74
2023-02-19T06:50:35.594Z,86.15
2023-02-19T06:51:35.645Z,85.89
2023-02-19T06:52:35.718Z,86.36
2023-02-19T06:53:35.725Z,85.95
2023-02-19T06:54:35.759Z,85.64
2023-02-19T06:55:35.808Z,86.03
2023-02-19T06:56:35.854Z,86.71
2023-02-19T06:57:35.958Z,86.91
2023-02-19T06:58:35.909Z,86.09
2023-02-19T06:59:35.942Z,86.44
2023-02-19T07:00:35.950Z,86.24
2023-02-19T07:01:36.015Z,85.62
2023-02-19T07:02:36.021Z,85.93
2023-02-19T07:03:36.040Z,86.54
2023-02-19T07:04:36.092Z,86.24
2023-02-19T07:05:36.106Z,85.99
2023-02-19T07:06:36.174Z,85.31
2023-02-19T07:07:36.270Z,86.13
2023-02-19T07:08:36.299Z,85.82
2023-02-19T07:09:36.309Z,84.90
2023-02-19T07:10:36.287Z,86.03
2023-02-19T07:11:36.356Z,85.76
2023-02-19T07:12:36.412Z,86.79
2023-02-19T07:13:36.514Z,86.33
2023-02-19T07:14:36.496Z,85.99
2023-02-19T07:15:36.545Z,85.52
2023-02-19T07:16:36.538Z,85.41
2023-02-19T07:17:36.525Z,85.62
2023-02-19T07:18:36.586Z,85.72
2023-02-19T07:19:36.625Z,85.62
2023-02-19T07:20:36.686Z,86.68
2023-02-19T07:21:36.746Z,86.24
2023-02-19T07:22:36.736Z,85.93
2023-02-19T07:23:36.768Z,85.78
2023-02-19T07:24:36.766Z,85.78
2023-02-19T07:25:36.760Z,85.44
2023-02-19T07:26:36.862Z,84.96
2023-02-19T07:27:36.849Z,85.21
2023-02-19T07:28:36.847Z,85.68
2023-02-19T07:29:36.930Z,85.17
2023-02-19T07:30:36.978Z,84.76
2023-02-19T07:31:37.067Z,84.34
2023-02-19T07:32:37.011Z,84.66
2023-02-19T07:33:37.030Z,84.76
2023-02-19T07:34:37.077Z,85.00
2023-02-19T07:35:37.163Z,85.66
2023-02-19T07:36:37.232Z,86.27
2023-02-19T07:37:37.216Z,86.56
2023-02-19T07:38:37.231Z,87.45
2023-02-19T07:39:37.272Z,87.24
2023-02-19T07:40:37.292Z,86.79
2023-02-19T07:41:37.300Z,85.62
2023-02-19T07:42:37.324Z,85.55
2023-02-19T07:43:37.305Z,85.66
2023-02-19T07:44:37.392Z,84.94
2023-02-19T07:45:37.412Z,86.00
2023-02-19T07:46:37.405Z,86.27
2023-02-19T07:47:37.494Z,85.66
2023-02-19T07:48:37.508Z,85.97
2023-02-19T07:49:37.496Z,85.46
2023-02-19T07:50:37.490Z,86.03
2023-02-19T07:51:37.477Z,85.00
2023-02-19T07:52:37.475Z,85.11
2023-02-19T07:53:37.487Z,85.41
2023-02-19T07:54:37.469Z,85.21
2023-02-19T07:55:37.514Z,85.41
2023-02-19T07:56:37.510Z,84.80
2023-02-19T07:57:37.520Z,84.80
2023-02-19T07:58:37.542Z,84.94
2023-02-19T07:59:37.606Z,85.76
2023-02-19T08:00:37.600Z,85.28
2023-02-19T08:01:37.650Z,85.14
2023-02-19T08:02:37.672Z,84.84
2023-02-19T08:03:37.714Z,84.84
2023-02-19T08:04:37.674Z,84.47
2023-02-19T08:05:37.689Z,84.56
2023-02-19T08:06:37.691Z,85.28
2023-02-19T08:07:37.749Z,85.25
2023-02-19T08:08:37.766Z,84.53
2023-02-19T08:09:37.788Z,84.94
2023-02-19T08:10:37.912Z,84.94
2023-02-19T08:11:37.878Z,84.84
2023-02-19T08:12:37.930Z,84.53
2023-02-19T08:13:37.963Z,84.22
2023-02-19T08:14:37.941Z,84.39
2023-02-19T08:15:38.006Z,83.87
2023-02-19T08:16:43.354Z,83.67
2023-02-19T08:17:38.053Z,83.73
2023-02-19T08:18:38.077Z,82.60
2023-02-19T08:19:38.063Z,82.26
2023-02-19T08:20:39.107Z,82.46
2023-02-19T08:21:38.186Z,82.60
2023-02-19T08:22:38.132Z,83.07
2023-02-19T08:23:38.177Z,82.56
2023-02-19T08:24:38.184Z,82.19
2023-02-19T08:25:38.227Z,82.77
2023-02-19T08:26:38.296Z,82.13
2023-02-19T08:27:38.313Z,82.50
2023-02-19T08:28:38.324Z,82.43
2023-02-19T08:29:38.324Z,83.26
2023-02-19T08:30:38.454Z,83.15
2023-02-19T08:31:38.442Z,82.89
2023-02-19T08:32:38.384Z,83.05
2023-02-19T08:33:38.437Z,82.91
2023-02-19T08:34:38.455Z,82.36
2023-02-19T08:35:38.488Z,81.43
2023-02-19T08:36:38.510Z,81.99
2023-02-19T08:37:38.536Z,81.92
2023-02-19T08:38:38.583Z,82.17
2023-02-19T08:39:38.626Z,82.91
2023-02-19T08:40:38.636Z,82.64
2023-02-19T08:41:38.688Z,83.15
2023-02-19T08:42:39.100Z,83.12
2023-02-19T08:43:38.708Z,82.19
2023-02-19T08:44:38.749Z,82.78
2023-02-19T08:45:38.778Z,82.78
2023-02-19T08:46:38.806Z,82.57
2023-02-19T08:47:38.846Z,82.84
2023-02-19T08:48:38.868Z,82.41
2023-02-19T08:49:38.887Z,82.62
2023-02-19T08:50:38.951Z,83.48
2023-02-19T08:51:39.006Z,83.54
2023-02-19T08:52:39.046Z,83.19
2023-02-19T08:53:39.082Z,83.05
2023-02-19T08:54:39.114Z,82.23
2023-02-19T08:55:39.139Z,82.29
2023-02-19T08:56:39.157Z,81.16
2023-02-19T08:57:39.252Z,81.48
2023-02-19T08:58:39.254Z,81.27
2023-02-19T08:59:39.267Z,81.34
2023-02-19T09:00:39.332Z,80.51
2023-02-19T09:01:39.490Z,80.10
2023-02-19T09:02:39.379Z,80.21
2023-02-19T09:03:39.397Z,80.10
2023-02-19T09:04:39.419Z,80.04
2023-02-19T09:05:39.442Z,80.92
2023-02-19T09:06:40.448Z,80.82
2023-02-19T09:07:39.521Z,80.82
2023-02-19T09:08:39.543Z,81.16
2023-02-19T09:09:39.582Z,80.65
2023-02-19T09:10:39.608Z,81.85
2023-02-19T09:11:39.650Z,80.92
2023-02-19T09:12:39.670Z,80.00
2023-02-19T09:13:39.709Z,80.31
2023-02-19T09:14:39.758Z,80.24
2023-02-19T09:15:39.803Z,80.35
2023-02-19T09:16:39.820Z,80.49
2023-02-19T09:17:39.908Z,81.48
2023-02-19T09:18:39.872Z,81.23
2023-02-19T09:19:39.901Z,80.92
2023-02-19T09:20:39.925Z,80.35
2023-02-19T09:21:39.967Z,80.51
2023-02-19T09:22:39.997Z,80.31
2023-02-19T09:23:40.058Z,79.96
2023-02-19T09:24:40.110Z,79.49
2023-02-19T09:25:40.127Z,80.00
2023-02-19T09:26:40.163Z,79.59
2023-02-19T09:27:40.196Z,80.96
2023-02-19T09:28:40.228Z,80.82
2023-02-19T09:29:40.258Z,80.04
2023-02-19T09:30:40.431Z,80.35
2023-02-19T09:31:40.423Z,80.55
2023-02-19T09:32:40.351Z,80.51
2023-02-19T09:33:40.329Z,79.86
2023-02-19T09:34:40.326Z,79.04
2023-02-19T09:35:40.358Z,78.25
2023-02-19T09:36:40.321Z,78.29
2023-02-19T09:37:40.352Z,79.42
2023-02-19T09:38:40.390Z,79.66
2023-02-19T09:39:40.450Z,79.46
2023-02-19T09:40:40.527Z,79.69
2023-02-19T09:41:40.542Z,78.80
2023-02-19T09:42:40.562Z,77.84
2023-02-19T09:43:41.281Z,77.39
2023-02-19T09:44:40.624Z,77.12
2023-02-19T09:45:40.642Z,77.09
2023-02-19T09:46:40.651Z,76.47
2023-02-19T09:47:40.723Z,76.17
2023-02-19T09:48:40.724Z,76.81
2023-02-19T09:49:40.696Z,76.61
2023-02-19T09:50:40.765Z,77.09
2023-02-19T09:51:40.779Z,77.46
2023-02-19T09:52:40.774Z,76.20
2023-02-19T09:53:40.808Z,75.68
2023-02-19T09:54:40.834Z,75.38
2023-02-19T09:55:40.872Z,74.60
2023-02-19T09:56:40.863Z,74.63
2023-02-19T09:57:40.915Z,75.10
2023-02-19T09:58:40.934Z,74.56
2023-02-19T09:59:40.942Z,74.05
2023-02-19T10:00:40.974Z,75.14
2023-02-19T10:01:41.039Z,73.74
2023-02-19T10:02:41.064Z,73.68
2023-02-19T10:03:41.116Z,73.54
2023-02-19T10:04:41.124Z,73.50
2023-02-19T10:05:41.140Z,73.40
2023-02-19T10:06:41.144Z,73.77
2023-02-19T10:07:41.154Z,72.72
2023-02-19T10:08:41.165Z,71.66
2023-02-19T10:09:41.259Z,72.58
2023-02-19T10:10:41.223Z,72.52
2023-02-19T10:11:41.204Z,73.44
2023-02-19T10:12:41.298Z,74.87
2023-02-19T10:13:41.293Z,74.90
2023-02-19T10:14:41.203Z,74.32
2023-02-19T10:15:41.279Z,72.75
2023-02-19T10:16:41.349Z,72.17
2023-02-19T10:17:41.275Z,71.56
2023-02-19T10:18:41.320Z,72.48
2023-02-19T10:19:41.346Z,70.54
2023-02-19T10:20:41.409Z,71.05
2023-02-19T10:21:41.444Z,70.81
2023-02-19T10:22:41.440Z,72.11
2023-02-19T10:23:41.508Z,71.59
2023-02-19T10:24:41.501Z,72.72
2023-02-19T10:25:41.504Z,71.53
2023-02-19T10:26:41.581Z,72.96
2023-02-19T10:27:41.582Z,73.20
2023-02-19T10:28:41.639Z,72.65
2023-02-19T10:29:41.667Z,73.20
2023-02-19T10:30:41.592Z,72.58
2023-02-19T10:31:41.754Z,72.58
2023-02-19T10:32:41.621Z,72.21
2023-02-19T10:33:41.699Z,73.33
2023-02-19T10:34:41.759Z,72.38
2023-02-19T10:35:42.451Z,71.66
2023-02-19T10:36:41.944Z,72.00
2023-02-19T10:37:41.871Z,71.91
2023-02-19T10:38:41.856Z,70.01
2023-02-19T10:39:41.843Z,65.62
2023-02-19T10:40:41.904Z,63.40
2023-02-19T10:41:44.134Z,60.13
2023-02-19T10:42:41.983Z,59.85
2023-02-19T10:43:42.017Z,60.69
2023-02-19T10:44:42.026Z,60.82
2023-02-19T10:45:42.075Z,62.26
2023-02-19T10:46:42.165Z,59.39
2023-02-19T10:47:42.127Z,58.61
2023-02-19T10:48:42.143Z,60.57
2023-02-19T10:49:42.157Z,60.36
2023-02-19T10:50:42.192Z,60.53
2023-02-19T10:51:42.247Z,58.81
2023-02-19T10:52:42.279Z,59.88
2023-02-19T10:53:42.306Z,59.61
2023-02-19T10:54:42.328Z,59.79
2023-02-19T10:55:42.376Z,60.76
2023-02-19T10:56:42.389Z,62.41
2023-02-19T10:57:42.399Z,62.65
2023-02-19T10:58:42.473Z,64.23
2023-02-19T10:59:42.430Z,65.05
2023-02-19T11:00:42.450Z,65.66
2023-02-19T11:01:42.487Z,65.63
2023-02-19T11:02:42.520Z,64.48
2023-02-19T11:03:42.536Z,65.73
2023-02-19T11:04:42.639Z,65.83
2023-02-19T11:05:42.586Z,63.57
2023-02-19T11:06:42.592Z,62.79
2023-02-19T11:07:42.613Z,62.36
2023-02-19T11:08:42.668Z,63.58
2023-02-19T11:09:42.623Z,62.90
2023-02-19T11:10:42.645Z,62.11
2023-02-19T11:11:42.655Z,62.85
2023-02-19T11:12:42.675Z,62.10
2023-02-19T11:13:42.701Z,62.51
2023-02-19T11:14:42.708Z,60.69
2023-02-19T11:15:42.740Z,60.20
2023-02-19T11:16:42.815Z,58.29
2023-02-19T11:17:42.825Z,61.75
2023-02-19T11:18:42.868Z,62.18
2023-02-19T11:19:43.041Z,59.86
2023-02-19T11:20:42.935Z,58.87
2023-02-19T11:21:42.879Z,57.09
2023-02-19T11:22:42.925Z,56.13
2023-02-19T11:23:42.987Z,59.50
2023-02-19T11:24:43.057Z,58.39
2023-02-19T11:25:43.046Z,56.67
2023-02-19T11:26:43.067Z,58.84
2023-02-19T11:27:43.139Z,57.80
2023-02-19T11:28:43.160Z,56.51
2023-02-19T11:29:43.269Z,58.06
2023-02-19T11:30:43.305Z,60.01
2023-02-19T11:31:43.319Z,61.02
2023-02-19T11:32:43.310Z,59.61
2023-02-19T11:33:43.320Z,58.82
2023-02-19T11:34:43.341Z,58.58
2023-02-19T11:35:43.391Z,60.68
2023-02-19T11:36:43.412Z,59.79
2023-02-19T11:37:43.423Z,58.63
2023-02-19T11:38:43.405Z,59.47
2023-02-19T11:39:43.480Z,63.06
2023-02-19T11:40:43.509Z,63.94
2023-02-19T11:41:43.532Z,62.18
2023-02-19T11:42:43.547Z,61.47
2023-02-19T11:43:43.579Z,61.98
2023-02-19T11:44:43.600Z,63.00
2023-02-19T11:45:43.662Z,61.60
2023-02-19T11:46:43.740Z,62.24
2023-02-19T11:47:43.707Z,62.55
2023-02-19T11:48:43.721Z,62.85
2023-02-19T11:49:43.743Z,63.90
2023-02-19T11:50:43.791Z,65.12
2023-02-19T11:51:46.115Z,63.53
2023-02-19T11:52:43.801Z,61.59
2023-02-19T11:53:43.832Z,62.51
2023-02-19T11:54:43.834Z,61.59
2023-02-19T11:55:43.920Z,62.78
2023-02-19T11:56:43.920Z,61.15
2023-02-19T11:57:43.914Z,61.61
2023-02-19T11:58:43.932Z,63.86
2023-02-19T11:59:43.935Z,63.33
2023-02-19T12:00:43.952Z,60.58
2023-02-19T12:01:44.001Z,59.07
2023-02-19T12:02:44.040Z,57.02
2023-02-19T12:03:44.042Z,55.85
2023-02-19T12:04:44.051Z,54.61
2023-02-19T12:05:44.093Z,53.55
2023-02-19T12:06:44.132Z,55.65
2023-02-19T12:07:44.205Z,56.16
2023-02-19T12:08:44.234Z,56.84
2023-02-19T12:09:44.214Z,55.76
2023-02-19T12:10:44.245Z,56.62
2023-02-19T12:11:44.244Z,56.31
2023-02-19T12:12:44.285Z,58.75
2023-02-19T12:13:44.334Z,59.24
2023-02-19T12:14:44.345Z,60.05
2023-02-19T12:15:44.403Z,61.30
2023-02-19T12:16:44.500Z,62.32
2023-02-19T12:17:44.503Z,61.36
2023-02-19T12:18:44.495Z,62.40
2023-02-19T12:19:44.484Z,62.23
2023-02-19T12:20:44.538Z,62.46
2023-02-19T12:21:44.599Z,63.15
2023-02-19T12:22:44.604Z,61.82
2023-02-19T12:23:44.589Z,61.31
2023-02-19T12:24:44.649Z,62.23
2023-02-19T12:25:44.682Z,62.46
2023-02-19T12:26:44.647Z,62.97
2023-02-19T12:27:44.638Z,62.87
2023-02-19T12:28:44.623Z,63.04
2023-02-19T12:29:44.629Z,61.08
2023-02-19T12:30:44.687Z,60.44
2023-02-19T12:31:44.691Z,60.56
2023-02-19T12:32:44.615Z,57.35
2023-02-19T12:33:44.621Z,57.37
2023-02-19T12:34:44.631Z,55.55
2023-02-19T12:35:44.634Z,56.23
2023-02-19T12:36:44.651Z,56.21
2023-02-19T12:37:44.661Z,55.35
2023-02-19T12:38:44.673Z,54.99
2023-02-19T12:39:44.693Z,53.47
2023-02-19T12:40:44.703Z,52.69
2023-02-19T12:41:44.711Z,53.67
2023-02-19T12:42:44.713Z,56.41
2023-02-19T12:43:44.763Z,57.13
2023-02-19T12:44:44.770Z,60.21
2023-02-19T12:45:44.781Z,59.12
2023-02-19T12:46:44.764Z,62.37
2023-02-19T12:47:44.745Z,59.22
2023-02-19T12:48:44.762Z,60.54
2023-02-19T12:49:47.083Z,59.66
2023-02-19T12:50:44.796Z,59.71
2023-02-19T12:51:44.807Z,62.66
2023-02-19T12:52:44.833Z,61.34